Time;durP1;ratioP1;P1;durP2;ratioP2;P2;SDS_P1;SDS_P2;PMS_P1;PMS_P2;Temp;Humidity;BMP_temperature;BMP_pressure;BME280_temperature;BME280_humidity;BME280_pressure;Samples;Min_cycle;Max_cycle;Signal;HPM_P1;HPM_P2
2022/12/27 00:02:21;;;;;;;1.97;0.80;;;;;;;6.57;100.00;98939.75;5034360;28;20218;-70
2022/12/27 00:04:48;;;;;;;3.83;0.90;;;;;;;6.50;100.00;98957.25;5033327;28;20217;-70
2022/12/27 00:07:15;;;;;;;1.23;0.70;;;;;;;6.40;100.00;98956.66;5033432;28;20214;-70
2022/12/27 00:09:41;;;;;;;3.07;0.70;;;;;;;6.42;100.00;98959.97;5032880;28;20201;-70
2022/12/27 00:12:08;;;;;;;1.23;0.80;;;;;;;6.31;100.00;98958.50;5033844;28;20708;-70
2022/12/27 00:14:35;;;;;;;2.43;0.77;;;;;;;6.33;100.00;98960.97;5032939;28;20205;-70
2022/12/27 00:17:01;;;;;;;1.73;1.00;;;;;;;6.24;100.00;98972.56;5033094;28;20210;-70
2022/12/27 00:19:28;;;;;;;2.27;0.70;;;;;;;6.21;100.00;98970.25;5032914;28;20288;-70
2022/12/27 00:21:54;;;;;;;2.17;0.70;;;;;;;6.14;100.00;98977.19;5033604;28;20240;-69
2022/12/27 00:24:20;;;;;;;2.40;0.90;;;;;;;6.06;100.00;98977.22;5031960;28;20756;-69
2022/12/27 00:26:47;;;;;;;2.73;0.90;;;;;;;6.07;100.00;98981.50;5028619;28;20657;-69
2022/12/27 00:29:13;;;;;;;2.20;0.80;;;;;;;6.03;98.37;98986.31;5032359;28;20210;-69
2022/12/27 00:31:40;;;;;;;1.73;0.80;;;;;;;6.02;95.96;98987.28;5033474;28;20407;-69
2022/12/27 00:34:07;;;;;;;1.57;0.80;;;;;;;6.05;96.04;98988.75;5032697;28;20286;-69
2022/12/27 00:36:35;;;;;;;1.27;0.70;;;;;;;5.99;95.22;98984.16;5033020;28;20206;-69
2022/12/27 00:39:01;;;;;;;1.63;0.60;;;;;;;5.97;92.97;98999.34;5032479;28;20206;-69
2022/12/27 00:41:28;;;;;;;2.20;0.80;;;;;;;5.89;94.06;99002.78;5033028;28;20592;-69
2022/12/27 00:43:55;;;;;;;1.43;0.70;;;;;;;5.89;94.83;99000.16;5032802;28;20212;-69
2022/12/27 00:46:21;;;;;;;2.00;0.90;;;;;;;5.86;95.26;99007.59;5032493;28;20677;-69
2022/12/27 00:48:48;;;;;;;2.67;0.90;;;;;;;5.80;97.25;99005.59;5033504;28;20220;-69
2022/12/27 00:51:17;;;;;;;1.57;0.80;;;;;;;5.83;96.41;99018.50;5032560;28;20222;-69
2022/12/27 00:53:44;;;;;;;3.70;0.90;;;;;;;5.75;97.78;99026.38;5033678;28;20210;-69
2022/12/27 00:56:23;;;;;;;2.30;0.93;;;;;;;5.71;97.87;99011.84;5029795;28;20586;-69
2022/12/27 00:58:55;;;;;;;2.90;0.80;;;;;;;5.63;98.84;99023.25;5033865;28;20190;-69
2022/12/27 01:01:24;;;;;;;2.90;0.83;;;;;;;5.60;99.66;99034.09;5036665;28;20230;-69
2022/12/27 01:03:50;;;;;;;2.50;0.70;;;;;;;5.53;99.22;99027.03;5037546;28;20292;-69
2022/12/27 01:06:19;;;;;;;4.47;0.97;;;;;;;5.48;99.88;99037.22;5036397;28;20205;-69
2022/12/27 01:08:47;;;;;;;3.53;1.00;;;;;;;5.49;99.63;99036.25;5037476;28;20212;-70
2022/12/27 01:11:15;;;;;;;2.53;0.80;;;;;;;5.33;100.00;99037.03;5035574;28;20232;-70
2022/12/27 01:13:45;;;;;;;2.60;0.80;;;;;;;5.25;100.00;99047.56;5036154;28;20669;-70
2022/12/27 01:16:14;;;;;;;3.03;0.80;;;;;;;5.20;100.00;99043.78;5036322;28;20202;-70
2022/12/27 01:18:43;;;;;;;0.97;0.70;;;;;;;5.08;100.00;99060.88;5037273;28;20209;-70
2022/12/27 01:21:12;;;;;;;2.00;0.87;;;;;;;5.07;100.00;99072.41;5035959;28;20321;-70
2022/12/27 01:23:39;;;;;;;0.70;0.70;;;;;;;5.04;100.00;99077.97;5035870;28;20216;-70
2022/12/27 01:26:09;;;;;;;2.23;0.80;;;;;;;5.04;100.00;99080.63;5035555;28;20210;-70
2022/12/27 01:28:36;;;;;;;2.30;1.00;;;;;;;5.10;100.00;99090.50;5037135;28;20212;-70
2022/12/27 01:31:17;;;;;;;3.13;0.87;;;;;;;5.07;100.00;99096.13;5035318;28;20226;-70
2022/12/27 01:33:43;;;;;;;3.33;0.90;;;;;;;5.01;100.00;99102.00;5037606;28;20202;-70
2022/12/27 01:36:14;;;;;;;2.27;0.80;;;;;;;5.06;100.00;99111.09;5036980;28;20213;-70
2022/12/27 01:38:42;;;;;;;1.30;0.80;;;;;;;4.95;100.00;99118.47;5035692;28;20653;-70
2022/12/27 01:44:39;;;;;;;3.27;0.80;;;;;;;4.78;100.00;99128.09;5034162;28;20269;-70
2022/12/27 01:47:18;;;;;;;2.47;1.00;;;;;;;4.78;100.00;99122.00;5036620;28;20217;-70
2022/12/27 01:50:26;;;;;;;3.03;0.90;;;;;;;4.66;100.00;99123.25;5035719;28;20236;-70
2022/12/27 01:53:07;;;;;;;4.63;0.80;;;;;;;4.69;100.00;99120.28;5035537;28;20225;-70
2022/12/27 01:55:54;;;;;;;2.73;1.00;;;;;;;4.63;100.00;99124.41;5034439;28;20206;-70
2022/12/27 01:58:28;;;;;;;2.10;1.07;;;;;;;4.48;100.00;99125.13;5035670;28;20205;-70
2022/12/27 02:00:56;;;;;;;3.83;0.93;;;;;;;4.53;100.00;99134.19;5035155;28;20225;-70
2022/12/27 02:03:43;;;;;;;5.30;1.03;;;;;;;4.50;100.00;99131.03;5036034;28;20210;-70
2022/12/27 02:06:11;;;;;;;2.13;1.10;;;;;;;4.39;100.00;99131.31;5034213;28;20198;-70
2022/12/27 02:08:56;;;;;;;3.43;0.90;;;;;;;4.29;100.00;99143.75;5037209;28;20217;-70
2022/12/27 02:14:10;;;;;;;2.93;0.90;;;;;;;4.21;100.00;99136.59;5035532;28;20276;-70
2022/12/27 02:16:37;;;;;;;2.73;0.90;;;;;;;4.14;100.00;99147.88;5033350;28;20208;-70
2022/12/27 02:19:10;;;;;;;3.17;1.00;;;;;;;3.96;100.00;99147.06;5035361;28;20202;-70
2022/12/27 02:21:42;;;;;;;2.63;0.80;;;;;;;3.84;100.00;99151.72;5035853;28;20727;-70
2022/12/27 02:24:16;;;;;;;5.37;1.10;;;;;;;3.69;100.00;99158.50;5034741;28;20288;-70
2022/12/27 02:26:51;;;;;;;1.87;0.90;;;;;;;3.74;100.00;99160.66;5035281;28;20193;-70
2022/12/27 02:29:32;;;;;;;1.97;1.10;;;;;;;3.67;100.00;99157.78;5033082;28;20225;-70
2022/12/27 02:32:04;;;;;;;1.17;0.77;;;;;;;3.64;100.00;99168.63;5035816;28;20236;-70
2022/12/27 02:34:54;;;;;;;3.87;0.80;;;;;;;3.71;100.00;99169.66;5034026;28;20680;-70
2022/12/27 02:37:25;;;;;;;4.33;0.80;;;;;;;3.73;100.00;99174.78;5033987;28;20206;-69
2022/12/27 02:39:52;;;;;;;1.63;1.00;;;;;;;3.84;100.00;99164.88;5034200;28;20210;-70
2022/12/27 02:54:29;;;;;;;1.80;0.70;;;;;;;4.00;100.00;99165.03;5030545;28;20208;-70
2022/12/27 02:57:13;;;;;;;2.17;0.70;;;;;;;4.04;100.00;99168.19;4961905;28;20320;-70
2022/12/27 03:03:22;;;;;;;2.73;0.90;;;;;;;4.08;100.00;99169.53;5033888;28;20570;-70
2022/12/27 03:08:53;;;;;;;0.77;0.60;;;;;;;4.02;100.00;99173.59;5033181;28;20285;-70
2022/12/27 03:17:18;;;;;;;3.93;0.87;;;;;;;3.91;100.00;99179.09;5016109;28;20234;-70
2022/12/27 03:25:27;;;;;;;1.37;0.90;;;;;;;3.80;100.00;99186.38;5034012;28;20223;-70
2022/12/27 03:33:48;;;;;;;1.57;0.70;;;;;;;3.67;100.00;99189.34;5033810;28;20205;-70
2022/12/27 03:39:26;;;;;;;2.90;0.60;;;;;;;3.65;100.00;99186.06;5033677;28;20193;-70
2022/12/27 03:44:42;;;;;;;0.83;0.70;;;;;;;3.71;100.00;99197.78;5031986;28;20243;-70
2022/12/27 03:47:28;;;;;;;3.47;0.87;;;;;;;3.72;100.00;99210.81;5033961;28;20206;-70
2022/12/27 03:50:21;;;;;;;2.77;0.87;;;;;;;3.68;100.00;99205.97;5032049;28;20201;-70
2022/12/27 03:52:54;;;;;;;1.47;0.80;;;;;;;3.66;100.00;99207.94;5035009;28;20229;-70
2022/12/27 03:55:21;;;;;;;2.20;0.83;;;;;;;3.64;100.00;99221.22;5033398;28;20206;-70
2022/12/27 03:57:47;;;;;;;1.03;0.80;;;;;;;3.63;100.00;99216.09;5034236;28;20206;-70
2022/12/27 04:00:15;;;;;;;3.30;0.70;;;;;;;3.68;100.00;99208.59;5032214;28;20202;-70
2022/12/27 04:02:41;;;;;;;0.63;0.50;;;;;;;3.67;100.00;99213.03;5033955;28;20222;-70
2022/12/27 04:05:08;;;;;;;2.73;0.73;;;;;;;3.59;100.00;99206.84;5032908;28;20213;-70
2022/12/27 04:07:34;;;;;;;1.23;0.90;;;;;;;3.48;100.00;99213.13;5033820;28;20209;-69
2022/12/27 04:34:45;;;;;;;2.30;0.70;;;;;;;3.13;100.00;99212.19;5031761;28;20605;-70
2022/12/27 04:37:14;;;;;;;0.93;0.63;;;;;;;2.95;100.00;99211.28;5033177;28;20600;-70
2022/12/27 04:54:55;;;;;;;2.60;0.73;;;;;;;2.97;100.00;99209.34;5032364;28;20202;-70
2022/12/27 04:56:10;;;;;;;2.93;0.83;;;;;;;3.01;100.00;99208.09;5006972;28;20210;-70
2022/12/27 05:02:01;;;;;;;2.23;1.00;;;;;;;3.08;100.00;99219.69;5033412;28;20202;-70
2022/12/27 05:04:07;;;;;;;0.93;0.87;;;;;;;3.11;100.00;99222.03;5032868;28;20564;-70
2022/12/27 05:06:33;;;;;;;3.27;1.03;;;;;;;3.13;100.00;99223.53;5032422;28;20216;-70
2022/12/27 05:14:27;;;;;;;2.13;1.07;;;;;;;3.14;100.00;99225.19;5032256;28;20706;-70
2022/12/27 05:16:54;;;;;;;1.20;0.83;;;;;;;3.23;100.00;99223.50;5030245;28;20213;-70
2022/12/27 05:19:20;;;;;;;1.20;0.90;;;;;;;3.23;100.00;99223.50;5032295;28;20209;-70
2022/12/27 05:27:11;;;;;;;3.70;1.27;;;;;;;3.28;100.00;99229.13;5031743;28;20647;-69
2022/12/27 05:29:37;;;;;;;2.20;1.00;;;;;;;3.29;100.00;99233.44;5032680;28;20688;-70
2022/12/27 05:32:03;;;;;;;1.40;0.87;;;;;;;3.27;100.00;99238.84;5029456;28;20704;-70
2022/12/27 05:34:30;;;;;;;3.20;1.00;;;;;;;3.27;100.00;99241.47;5032549;28;20662;-70
2022/12/27 05:36:56;;;;;;;1.83;1.10;;;;;;;3.28;100.00;99237.03;5031915;28;20202;-69
2022/12/27 05:39:22;;;;;;;1.40;0.80;;;;;;;3.31;100.00;99242.00;5032773;28;20210;-70
2022/12/27 05:41:49;;;;;;;5.13;1.20;;;;;;;3.30;100.00;99246.41;5031326;28;20248;-70
2022/12/27 05:44:15;;;;;;;3.30;1.10;;;;;;;3.26;100.00;99234.53;5030824;28;20213;-70
2022/12/27 05:46:41;;;;;;;2.30;1.20;;;;;;;3.29;100.00;99242.13;5034194;28;20214;-70
2022/12/27 05:49:08;;;;;;;5.43;1.20;;;;;;;3.29;100.00;99246.59;5036121;28;20232;-70
2022/12/27 05:51:34;;;;;;;2.10;0.90;;;;;;;3.26;100.00;99247.66;5035739;28;20226;-70
2022/12/27 05:54:00;;;;;;;2.10;1.10;;;;;;;3.21;100.00;99249.09;5035828;28;20229;-70
2022/12/27 05:56:27;;;;;;;2.03;1.07;;;;;;;3.22;100.00;99261.25;5035149;28;20208;-69
2022/12/27 05:58:54;;;;;;;5.03;1.13;;;;;;;3.17;100.00;99266.94;5036854;28;20210;-69
2022/12/27 06:01:20;;;;;;;2.30;1.00;;;;;;;3.14;100.00;99267.22;5034418;28;20228;-69
2022/12/27 06:03:46;;;;;;;2.47;1.20;;;;;;;3.13;100.00;99264.75;5036084;28;20202;-69
2022/12/27 06:06:13;;;;;;;1.63;1.10;;;;;;;3.14;100.00;99266.41;5034989;28;20212;-69
2022/12/27 06:08:40;;;;;;;1.43;0.90;;;;;;;3.14;100.00;99269.03;5035317;28;20198;-70
2022/12/27 06:11:15;;;;;;;1.83;0.80;;;;;;;3.10;100.00;99262.41;5034756;28;20237;-69
2022/12/27 06:13:44;;;;;;;1.77;0.93;;;;;;;3.12;100.00;99260.47;5035322;28;20221;-69
2022/12/27 06:16:12;;;;;;;4.23;1.00;;;;;;;3.10;100.00;99259.75;5033650;28;20665;-70
2022/12/27 06:18:40;;;;;;;3.77;0.90;;;;;;;3.08;100.00;99259.09;5035432;28;20665;-69
2022/12/27 06:21:18;;;;;;;2.30;1.00;;;;;;;3.10;100.00;99257.13;5035498;28;20238;-69
2022/12/27 06:23:45;;;;;;;1.33;0.80;;;;;;;3.12;100.00;99263.91;5028433;28;20201;-69
2022/12/27 06:26:23;;;;;;;5.27;1.27;;;;;;;3.06;100.00;99267.13;5035650;28;20631;-70
2022/12/27 06:28:50;;;;;;;3.10;1.00;;;;;;;3.08;100.00;99261.72;5015605;28;20197;-69
2022/12/27 06:31:17;;;;;;;1.73;1.00;;;;;;;3.10;100.00;99263.22;5033936;28;20240;-70
2022/12/27 06:33:45;;;;;;;2.20;0.80;;;;;;;3.12;100.00;99260.47;5015767;28;20222;-69
2022/12/27 06:36:14;;;;;;;1.10;0.80;;;;;;;3.07;100.00;99265.31;5034004;28;20206;-70
2022/12/27 06:38:41;;;;;;;3.40;0.90;;;;;;;3.02;100.00;99270.19;5035008;28;20212;-69
2022/12/27 06:41:11;;;;;;;1.77;0.80;;;;;;;2.94;100.00;99262.97;5034345;28;20221;-70
2022/12/27 06:43:38;;;;;;;2.10;0.80;;;;;;;2.94;100.00;99268.25;5035386;28;20549;-70
2022/12/27 06:46:09;;;;;;;2.23;0.93;;;;;;;2.82;100.00;99273.78;5031988;28;20218;-69
2022/12/27 06:48:35;;;;;;;3.17;1.10;;;;;;;2.70;100.00;99272.28;5034847;28;20190;-70
2022/12/27 06:51:09;;;;;;;3.60;1.10;;;;;;;2.68;100.00;99271.59;5034204;28;20624;-69
2022/12/27 06:53:36;;;;;;;3.00;1.07;;;;;;;2.60;100.00;99276.72;5035110;28;20213;-69
2022/12/27 06:56:04;;;;;;;2.60;1.17;;;;;;;2.57;100.00;99284.91;5033549;28;20210;-69
2022/12/27 06:58:31;;;;;;;3.97;1.17;;;;;;;2.51;100.00;99282.81;5033942;28;20210;-69
2022/12/27 07:00:57;;;;;;;2.83;1.20;;;;;;;2.59;100.00;99290.81;5031296;28;20226;-69
2022/12/27 07:03:23;;;;;;;5.53;1.20;;;;;;;2.48;100.00;99290.97;5032765;28;20205;-69
2022/12/27 07:05:50;;;;;;;1.70;0.93;;;;;;;2.44;100.00;99290.41;5032212;28;20206;-69
2022/12/27 07:08:16;;;;;;;5.27;1.00;;;;;;;2.49;100.00;99295.25;5033536;28;20209;-69
2022/12/27 07:10:42;;;;;;;2.20;0.97;;;;;;;2.41;100.00;99290.69;5034666;28;20214;-69
2022/12/27 07:13:09;;;;;;;2.50;1.20;;;;;;;2.37;100.00;99297.19;5034563;28;20700;-69
2022/12/27 07:15:35;;;;;;;2.47;1.10;;;;;;;2.32;100.00;99293.31;5034123;28;20210;-69
2022/12/27 07:18:01;;;;;;;2.63;1.07;;;;;;;2.38;100.00;99293.59;5018246;28;20208;-69
2022/12/27 07:20:28;;;;;;;3.07;1.10;;;;;;;2.29;100.00;99299.66;5033203;28;20206;-70
2022/12/27 07:22:57;;;;;;;3.10;1.00;;;;;;;2.30;100.00;99301.31;5033697;28;20593;-69
2022/12/27 07:25:24;;;;;;;1.70;1.00;;;;;;;2.37;100.00;99301.59;5038585;28;20326;-70
2022/12/27 07:27:50;;;;;;;2.43;1.00;;;;;;;2.27;100.00;99306.00;5054086;28;20211;-69
2022/12/27 07:30:16;;;;;;;4.63;1.20;;;;;;;2.39;100.00;99304.94;5054146;28;20219;-69
2022/12/27 07:32:43;;;;;;;5.20;1.13;;;;;;;2.50;100.00;99307.41;5051117;28;20765;-70
2022/12/27 07:35:09;;;;;;;1.77;1.00;;;;;;;2.44;100.00;99307.97;5033457;28;20574;-69
2022/12/27 07:37:35;;;;;;;7.33;1.07;;;;;;;2.55;100.00;99308.66;5034407;28;20228;-69
2022/12/27 07:40:02;;;;;;;1.63;1.00;;;;;;;2.71;100.00;99308.09;5034434;28;20202;-69
2022/12/27 07:42:28;;;;;;;2.33;1.03;;;;;;;2.87;100.00;99310.97;5034854;28;20230;-69
2022/12/27 07:44:55;;;;;;;1.33;0.97;;;;;;;3.03;100.00;99311.25;5034063;28;20202;-69
2022/12/27 07:47:21;;;;;;;1.97;0.83;;;;;;;3.11;100.00;99312.16;5034073;28;20660;-69
2022/12/27 07:49:47;;;;;;;3.73;1.10;;;;;;;3.22;100.00;99313.81;5032479;28;20546;-69
2022/12/27 07:52:14;;;;;;;3.37;0.90;;;;;;;3.29;100.00;99312.28;5033425;28;20595;-69
2022/12/27 07:54:41;;;;;;;2.43;0.80;;;;;;;3.32;100.00;99314.63;5033151;28;20229;-70
2022/12/27 07:57:08;;;;;;;3.03;1.10;;;;;;;3.36;100.00;99308.94;5033421;28;20213;-69
2022/12/27 07:59:34;;;;;;;2.13;1.27;;;;;;;3.39;100.00;99313.88;5033587;28;20206;-69
2022/12/27 08:02:06;;;;;;;2.53;1.07;;;;;;;3.37;100.00;99313.22;5031465;28;20222;-69
2022/12/27 08:04:35;;;;;;;2.10;1.10;;;;;;;3.43;100.00;99309.19;5032999;28;20204;-69
2022/12/27 08:07:06;;;;;;;2.80;1.10;;;;;;;3.46;100.00;99309.72;5032572;28;20570;-69
2022/12/27 08:09:36;;;;;;;3.77;1.60;;;;;;;3.50;100.00;99307.63;5033368;28;20190;-69
2022/12/27 08:12:03;;;;;;;1.43;0.97;;;;;;;3.55;100.00;99302.78;5032155;28;21702;-69
2022/12/27 08:14:29;;;;;;;3.27;1.10;;;;;;;3.60;100.00;99296.13;5033635;28;20229;-69
2022/12/27 08:17:05;;;;;;;2.03;1.00;;;;;;;3.64;100.00;99299.28;5031088;28;20206;-69
2022/12/27 08:19:31;;;;;;;2.93;1.00;;;;;;;3.67;100.00;99297.16;5032577;28;20212;-69
2022/12/27 08:21:58;;;;;;;3.50;0.90;;;;;;;3.73;100.00;99306.28;5032292;28;20241;-69
2022/12/27 08:24:24;;;;;;;4.17;1.10;;;;;;;3.77;100.00;99302.41;5033600;28;20209;-69
2022/12/27 08:26:50;;;;;;;2.80;1.00;;;;;;;3.82;100.00;99308.03;5032724;28;20260;-69
2022/12/27 08:29:17;;;;;;;3.90;1.57;;;;;;;3.87;100.00;99313.69;5032326;28;20213;-69
2022/12/27 08:31:43;;;;;;;2.70;1.10;;;;;;;3.91;100.00;99317.69;5033393;28;20234;-69
2022/12/27 08:34:09;;;;;;;0.70;0.70;;;;;;;3.94;100.00;99306.88;5031476;28;20222;-69
2022/12/27 08:36:36;;;;;;;2.00;0.70;;;;;;;3.92;100.00;99321.97;5025178;28;20654;-69
2022/12/27 08:39:03;;;;;;;2.37;0.90;;;;;;;3.94;100.00;99314.78;5033520;28;20212;-69
2022/12/27 08:41:29;;;;;;;2.10;0.97;;;;;;;4.01;100.00;99310.56;5032226;28;20225;-69
2022/12/27 08:43:55;;;;;;;3.07;1.00;;;;;;;4.13;100.00;99310.22;5032960;28;20198;-69
2022/12/27 08:46:22;;;;;;;3.37;1.20;;;;;;;4.11;100.00;99314.81;5030614;28;20209;-69
2022/12/27 08:48:48;;;;;;;3.17;1.07;;;;;;;4.07;100.00;99317.88;5032622;28;20206;-69
2022/12/27 08:51:15;;;;;;;2.00;1.10;;;;;;;4.17;100.00;99318.66;5031937;28;20222;-69
2022/12/27 08:53:41;;;;;;;2.73;1.10;;;;;;;4.11;100.00;99327.16;5032951;28;20224;-69
2022/12/27 08:56:07;;;;;;;2.43;1.13;;;;;;;4.10;100.00;99320.22;5031723;28;20202;-69
2022/12/27 08:58:34;;;;;;;1.43;0.90;;;;;;;4.12;100.00;99321.72;5031718;28;20673;-69
2022/12/27 09:01:05;;;;;;;1.60;0.97;;;;;;;4.09;100.00;99335.19;5031369;28;20719;-69
2022/12/27 09:03:31;;;;;;;2.93;1.00;;;;;;;4.15;100.00;99333.75;5032374;28;20280;-69
2022/12/27 09:06:14;;;;;;;2.67;1.00;;;;;;;4.17;100.00;99327.38;5032081;28;20198;-69
2022/12/27 09:08:40;;;;;;;1.57;0.80;;;;;;;4.18;100.00;99333.47;5033515;28;20194;-69
2022/12/27 09:11:17;;;;;;;3.17;0.90;;;;;;;4.18;100.00;99331.66;5032293;28;20312;-69
2022/12/27 09:13:43;;;;;;;3.30;1.20;;;;;;;4.26;100.00;99331.75;5031518;28;20233;-69
2022/12/27 09:16:13;;;;;;;2.00;1.07;;;;;;;4.27;100.00;99335.22;5031888;28;20202;-70
2022/12/27 09:18:40;;;;;;;4.27;1.00;;;;;;;4.37;100.00;99335.97;5032121;28;20664;-69
2022/12/27 09:21:10;;;;;;;3.03;1.00;;;;;;;4.39;100.00;99339.28;5032253;28;20238;-69
2022/12/27 09:23:38;;;;;;;2.87;1.00;;;;;;;4.42;100.00;99338.97;5036871;28;20719;-69
2022/12/27 09:26:10;;;;;;;2.97;1.13;;;;;;;4.43;100.00;99330.94;5035421;28;20654;-69
2022/12/27 09:28:36;;;;;;;2.43;1.00;;;;;;;4.65;100.00;99337.59;5035766;28;20201;-69
2022/12/27 09:31:03;;;;;;;4.30;1.57;;;;;;;4.73;100.00;99341.13;5035243;28;20226;-69
2022/12/27 09:33:30;;;;;;;4.20;1.07;;;;;;;4.71;100.00;99340.41;5036245;28;20245;-69
2022/12/27 09:36:07;;;;;;;4.17;1.33;;;;;;;4.71;100.00;99345.69;5033648;28;20228;-69
2022/12/27 09:38:34;;;;;;;3.87;1.63;;;;;;;4.77;100.00;99337.19;5036060;28;20213;-69
2022/12/27 09:41:19;;;;;;;5.77;2.10;;;;;;;4.84;100.00;99345.31;5034950;28;20226;-69
2022/12/27 09:44:02;;;;;;;5.43;2.00;;;;;;;4.91;100.00;99343.72;5035234;28;20205;-70
2022/12/27 09:46:38;;;;;;;2.17;1.90;;;;;;;4.88;100.00;99350.13;5034099;28;20204;-69
2022/12/27 09:49:08;;;;;;;4.77;2.00;;;;;;;4.86;100.00;99348.63;5036341;28;20285;-69
2022/12/27 09:51:58;;;;;;;3.53;1.93;;;;;;;4.91;100.00;99343.72;5035346;28;20241;-69
2022/12/27 09:55:00;;;;;;;3.60;1.50;;;;;;;5.08;100.00;99337.63;5036010;28;20309;-70
2022/12/27 09:57:33;;;;;;;2.13;1.00;;;;;;;5.33;94.38;99328.91;5032630;28;20208;-69
2022/12/27 10:00:04;;;;;;;2.10;1.43;;;;;;;5.33;97.83;99337.63;5034877;28;20240;-69
2022/12/27 10:02:47;;;;;;;4.63;1.20;;;;;;;5.40;96.27;99329.94;5034814;28;20229;-69
2022/12/27 10:05:27;;;;;;;2.30;0.87;;;;;;;5.40;96.00;99329.94;5036339;28;20204;-69
2022/12/27 10:07:56;;;;;;;2.20;0.80;;;;;;;5.39;100.00;99329.09;5035176;28;20677;-69
2022/12/27 10:10:57;;;;;;;1.77;1.00;;;;;;;5.44;98.37;99332.13;5036061;28;20217;-69
2022/12/27 10:13:48;;;;;;;2.90;1.60;;;;;;;5.42;97.57;99335.88;5034222;28;20213;-69
2022/12/27 10:16:40;;;;;;;2.93;0.90;;;;;;;5.63;92.31;99331.03;5034942;28;20206;-69
2022/12/27 10:19:36;;;;;;;3.70;1.00;;;;;;;5.55;93.88;99334.47;5034367;28;20226;-70
2022/12/27 10:22:05;;;;;;;5.43;1.00;;;;;;;5.69;87.27;99335.69;5033467;28;20234;-69
2022/12/27 10:24:41;;;;;;;3.50;0.90;;;;;;;5.87;84.11;99339.94;5035428;28;20202;-69
2022/12/27 10:27:18;;;;;;;3.20;1.20;;;;;;;5.77;93.46;99333.94;5031503;28;20198;-69
2022/12/27 10:29:45;;;;;;;5.17;2.03;;;;;;;5.66;95.71;99331.56;5035671;28;20190;-69
2022/12/27 10:32:15;;;;;;;2.83;1.90;;;;;;;5.61;98.23;99333.03;5033735;28;20233;-69
2022/12/27 10:34:42;;;;;;;5.63;2.30;;;;;;;5.67;98.74;99325.31;5033147;28;20294;-69
2022/12/27 10:37:15;;;;;;;2.70;2.10;;;;;;;5.94;95.09;99330.44;5026594;28;20198;-69
2022/12/27 10:39:42;;;;;;;3.20;2.40;;;;;;;5.73;98.71;99321.19;5034924;28;20209;-69
2022/12/27 10:42:11;;;;;;;4.77;2.30;;;;;;;5.68;98.21;99326.13;5034281;28;20225;-69
2022/12/27 10:44:38;;;;;;;5.53;2.13;;;;;;;5.78;99.02;99325.03;5034123;28;20577;-70
2022/12/27 10:47:05;;;;;;;5.43;2.23;;;;;;;5.73;100.00;99324.69;5035483;28;20575;-70
2022/12/27 10:49:33;;;;;;;5.63;2.30;;;;;;;5.76;98.99;99326.16;5034552;28;20198;-70
2022/12/27 10:52:20;;;;;;;4.17;1.93;;;;;;;5.79;99.77;99326.69;5035326;28;20230;-69
2022/12/27 10:54:52;;;;;;;8.13;2.20;;;;;;;5.83;100.00;99328.06;5032608;28;20704;-69
2022/12/27 10:57:32;;;;;;;3.77;2.20;;;;;;;5.95;95.37;99328.59;5035178;28;20206;-70
2022/12/27 11:00:21;;;;;;;5.63;2.00;;;;;;;6.11;97.03;99320.75;5034365;28;20202;-69
2022/12/27 11:02:55;;;;;;;2.27;1.40;;;;;;;6.20;95.18;99320.59;5034834;28;20561;-69
2022/12/27 11:05:27;;;;;;;4.53;1.33;;;;;;;6.27;92.68;99316.34;5033568;28;20566;-70
2022/12/27 11:07:54;;;;;;;2.87;1.37;;;;;;;6.44;88.25;99314.56;5035006;28;20194;-69
2022/12/27 11:10:26;;;;;;;3.67;1.20;;;;;;;6.46;91.30;99312.56;5032988;28;20210;-69
2022/12/27 11:12:55;;;;;;;2.03;1.20;;;;;;;6.50;91.67;99306.81;5034993;28;20715;-69
2022/12/27 11:15:22;;;;;;;2.63;1.10;;;;;;;6.58;88.76;99308.63;5033417;28;20260;-69
2022/12/27 11:18:09;;;;;;;3.17;1.10;;;;;;;6.65;86.83;99312.28;5033456;28;20687;-69
2022/12/27 11:20:42;;;;;;;2.13;1.40;;;;;;;6.85;86.55;99311.81;5031934;28;20208;-69
2022/12/27 11:23:08;;;;;;;2.97;1.00;;;;;;;6.87;85.66;99315.09;5034090;28;20726;-69
2022/12/27 11:25:36;;;;;;;2.57;1.10;;;;;;;6.92;85.40;99312.78;5033952;28;20202;-69
2022/12/27 11:28:04;;;;;;;5.60;1.20;;;;;;;6.89;85.70;99312.28;5034192;28;20210;-69
2022/12/27 11:30:34;;;;;;;2.80;1.20;;;;;;;6.88;84.23;99305.34;5034487;28;20202;-69
2022/12/27 11:33:48;;;;;;;3.03;1.13;;;;;;;6.78;86.26;99315.28;5034216;28;20191;-70
2022/12/27 11:36:26;;;;;;;2.80;1.10;;;;;;;6.94;85.29;99313.47;5031250;28;20212;-69
2022/12/27 11:38:52;;;;;;;2.70;1.20;;;;;;;6.88;86.25;99303.53;5033899;28;20189;-69
2022/12/27 11:41:37;;;;;;;3.57;1.03;;;;;;;6.93;86.70;99303.84;5033977;28;20233;-69
2022/12/27 11:44:17;;;;;;;1.77;1.10;;;;;;;6.97;84.47;99299.88;5033718;28;20222;-69
2022/12/27 11:47:03;;;;;;;2.87;1.00;;;;;;;7.05;83.60;99302.53;5034233;28;20190;-69
2022/12/27 11:49:36;;;;;;;2.40;1.10;;;;;;;7.15;84.52;99292.59;5034364;28;20190;-69
2022/12/27 11:52:38;;;;;;;1.43;0.90;;;;;;;7.49;82.55;99301.16;5033923;28;20237;-69
2022/12/27 11:55:31;;;;;;;1.90;1.20;;;;;;;7.45;82.57;99299.81;5024078;28;20226;-69
2022/12/27 11:58:24;;;;;;;2.60;0.97;;;;;;;7.28;82.28;99292.09;5034435;28;20194;-69
2022/12/27 12:01:12;;;;;;;3.07;0.80;;;;;;;7.26;81.60;99294.06;5033621;28;20201;-69
2022/12/27 12:04:00;;;;;;;3.27;1.03;;;;;;;7.35;80.38;99296.56;5033796;28;20622;-69
2022/12/27 12:06:37;;;;;;;1.43;0.87;;;;;;;7.46;80.38;99292.72;5033652;28;20206;-69
2022/12/27 12:09:35;;;;;;;2.23;1.00;;;;;;;7.40;80.02;99281.00;5032534;28;20193;-69
2022/12/27 12:12:27;;;;;;;2.33;1.10;;;;;;;7.31;79.47;99291.75;5033683;28;20241;-69
2022/12/27 12:15:05;;;;;;;3.70;1.23;;;;;;;7.44;81.58;99292.06;5032657;28;20214;-69
2022/12/27 12:17:53;;;;;;;4.10;1.13;;;;;;;7.46;84.86;99290.09;5033328;28;20221;-69
2022/12/27 12:20:39;;;;;;;1.63;0.80;;;;;;;7.41;79.78;99292.38;5033661;28;20209;-69
2022/12/27 12:23:17;;;;;;;2.83;1.00;;;;;;;7.44;80.09;99292.91;5033566;28;20198;-69
2022/12/27 12:26:14;;;;;;;2.80;1.03;;;;;;;7.51;80.25;99291.22;5033461;28;20186;-69
2022/12/27 12:29:20;;;;;;;4.33;1.10;;;;;;;7.52;80.44;99294.69;5033868;28;20186;-69
2022/12/27 12:32:04;;;;;;;2.63;0.80;;;;;;;7.51;79.07;99280.63;5033380;28;20232;-69
2022/12/27 12:34:43;;;;;;;1.77;0.80;;;;;;;7.52;81.02;99286.75;5033075;28;20205;-69
2022/12/27 12:37:15;;;;;;;2.90;1.00;;;;;;;7.51;82.42;99285.09;5033405;28;20269;-69
2022/12/27 12:39:58;;;;;;;1.57;1.07;;;;;;;7.49;82.09;99292.38;5033319;28;20194;-70
2022/12/27 12:42:30;;;;;;;2.73;1.37;;;;;;;7.61;80.47;99283.88;5033506;28;20406;-69
2022/12/27 12:45:05;;;;;;;3.67;0.80;;;;;;;7.51;81.11;99285.09;5033426;28;20203;-69
2022/12/27 12:48:04;;;;;;;2.57;1.00;;;;;;;7.57;81.48;99285.25;5033484;28;20193;-71
2022/12/27 12:50:46;;;;;;;2.77;1.00;;;;;;;7.63;81.65;99289.03;5010663;28;20288;-70
2022/12/27 12:53:24;;;;;;;3.20;1.03;;;;;;;7.73;81.75;99292.28;5032868;28;20228;-70
2022/12/27 12:56:02;;;;;;;2.63;0.90;;;;;;;7.89;81.55;99287.78;5032200;28;20240;-70
2022/12/27 12:59:35;;;;;;;3.53;1.23;;;;;;;7.81;81.82;99289.63;5032499;28;20577;-70
2022/12/27 13:02:16;;;;;;;4.80;1.07;;;;;;;7.84;80.40;99287.47;4967701;28;20231;-70
2022/12/27 13:05:13;;;;;;;3.13;1.27;;;;;;;7.81;78.82;99279.03;5032886;28;20191;-70
2022/12/27 13:08:00;;;;;;;3.65;1.10;;;;;;;7.67;77.58;99285.03;5030656;28;20518;-70
2022/12/27 13:10:55;;;;;;;3.40;1.13;;;;;;;7.91;81.48;99269.03;5032759;28;20197;-70
2022/12/27 13:14:08;;;;;;;3.37;1.00;;;;;;;7.80;78.35;99270.28;5032839;28;20194;-70
2022/12/27 13:17:06;;;;;;;2.23;1.20;;;;;;;8.01;80.30;99273.13;5032618;28;20186;-70
2022/12/27 13:19:50;;;;;;;2.93;1.10;;;;;;;8.06;78.51;99270.78;5021188;28;20200;-70
2022/12/27 13:22:23;;;;;;;5.00;1.60;;;;;;;7.95;77.52;99271.19;5013032;28;20580;-70
2022/12/27 13:25:22;;;;;;;3.77;1.07;;;;;;;8.04;78.85;99271.97;5013067;28;20207;-70
2022/12/27 13:28:25;;;;;;;3.50;1.50;;;;;;;8.09;78.43;99256.38;5011739;28;20279;-70
2022/12/27 13:30:57;;;;;;;4.77;1.10;;;;;;;8.24;77.68;99265.28;5012341;28;20237;-70
2022/12/27 13:33:51;;;;;;;3.97;1.10;;;;;;;8.10;75.79;99263.34;5012841;28;20234;-70
2022/12/27 13:36:45;;;;;;;1.70;1.10;;;;;;;7.86;76.71;99258.16;5012718;28;20234;-70
2022/12/27 13:40:13;;;;;;;2.73;1.00;;;;;;;7.92;77.81;99262.78;5013670;28;20217;-70
2022/12/27 13:42:59;;;;;;;5.37;1.33;;;;;;;7.79;77.17;99254.56;4983293;28;20231;-70
2022/12/27 13:46:03;;;;;;;3.17;1.00;;;;;;;7.70;76.36;99256.41;5012813;28;20194;-70
2022/12/27 13:48:54;;;;;;;3.33;1.20;;;;;;;7.73;76.88;99252.56;5012553;28;20210;-70